»·PEaware :: SKY265 KABQ-KSKX

SKY265 :: KABQ-KSKX

FLIGHT INFORMATION

Flight Status: Arrived
Operator:
Sky High Charters
More flights by this operator :: More flights under this callsign
Pilot: Julian C. (16982)
Aircraft: CIRRUS VISIONJET
(SF50)
More flights by this aircraft type
Origin: KABQ Albuquerque Intl Sunport
United States
Destination: KSKX Taos Regl
United States
More flights between these airports :: More routes between these airports
Route: ABQ V263 SAF V83 TAS
File this flight plan on PilotEdge
Remarks: Sky High Scenario 2
Altitude:
(Current/Filed)
11,000ft
Speed:
(Current/Filed)
250kts
Departed: 04-Dec-19 04:14 PM
Arrived: 04-Dec-19 04:56 PM
Distance/Time
Traveled:
96nm/0:42
Distance/Time
To Go:
Arrived

Flight Plot

Page will automatically refresh every two minutes.

Flight plan parsing failed; only flown route is shown


Map Options




Map Legend


Flown Route
Filed Route
Departure Airport
Arrival Airport
Navaid (VOR, NDB)
Fix

Horizontal Profiles

Position Reports

Time Latitude Longitude Heading Altitude Ground
Speed
04-Dec-19 15:50 35.047008 -106.616361 11 5309ft 0kts
04-Dec-19 15:51 35.047008 -106.616361 11 5309ft 0kts
04-Dec-19 15:52 35.047008 -106.616361 11 5309ft 0kts
04-Dec-19 15:53 35.047008 -106.616361 11 5309ft 0kts
04-Dec-19 15:54 35.047008 -106.616361 11 5309ft 0kts
04-Dec-19 15:55 35.047008 -106.616361 11 5309ft 0kts
04-Dec-19 15:56 35.047008 -106.616361 11 5309ft 0kts
04-Dec-19 15:57 35.047008 -106.616361 11 5309ft 0kts
04-Dec-19 15:58 35.047008 -106.616361 11 5309ft 0kts
04-Dec-19 15:59 35.047008 -106.616361 11 5309ft 0kts
04-Dec-19 16:00 35.047008 -106.616361 11 5309ft 0kts
04-Dec-19 16:01 35.047008 -106.616361 11 5309ft 0kts
04-Dec-19 16:02 35.047008 -106.616361 11 5309ft 0kts
04-Dec-19 16:03 35.047008 -106.616361 11 5309ft 0kts
04-Dec-19 16:04 35.047008 -106.616361 11 5309ft 0kts
04-Dec-19 16:05 35.047008 -106.616361 11 5309ft 0kts
04-Dec-19 16:06 35.047008 -106.616361 11 5309ft 0kts
04-Dec-19 16:07 35.047008 -106.616361 11 5309ft 0kts
04-Dec-19 16:08 35.046399 -106.616473 181 5310ft 10kts
04-Dec-19 16:09 35.045589 -106.620146 271 5304ft 17kts
04-Dec-19 16:10 35.045139 -106.621406 178 5298ft 0kts
04-Dec-19 16:11 35.045113 -106.621401 166 5298ft 0kts
04-Dec-19 16:12 35.044327 -106.619828 84 5307ft 26kts
04-Dec-19 16:13 35.045059 -106.587270 71 6020ft 129kts
04-Dec-19 16:14 35.067247 -106.591083 294 7646ft 102kts
04-Dec-19 16:15 35.082817 -106.620179 299 9077ft 102kts
04-Dec-19 16:16 35.102875 -106.643510 338 10460ft 110kts
04-Dec-19 16:17 35.141558 -106.658450 327 10981ft 194kts
04-Dec-19 16:18 35.197137 -106.686838 338 11009ft 207kts
04-Dec-19 16:19 35.247787 -106.706129 338 11012ft 175kts
04-Dec-19 16:20 35.293691 -106.707795 14 11015ft 171kts
04-Dec-19 16:21 35.340341 -106.691114 11 11018ft 193kts
04-Dec-19 16:22 35.397353 -106.667377 13 11011ft 233kts
04-Dec-19 16:23 35.460352 -106.640777 16 11004ft 240kts
04-Dec-19 16:24 35.519358 -106.598799 64 11007ft 265kts
04-Dec-19 16:25 35.527122 -106.507182 87 11012ft 274kts
04-Dec-19 16:26 35.530137 -106.413004 87 11012ft 278kts
04-Dec-19 16:27 35.533146 -106.316247 87 11010ft 286kts
04-Dec-19 16:28 35.536125 -106.217780 87 11010ft 289kts
04-Dec-19 16:29 35.539031 -106.118974 87 11009ft 291kts
04-Dec-19 16:30 35.593774 -106.059520 8 11135ft 286kts
04-Dec-19 16:31 35.666183 -106.046640 3 11006ft 245kts
04-Dec-19 16:32 35.730971 -106.037013 3 10986ft 227kts
04-Dec-19 16:33 35.794949 -106.027633 3 10997ft 243kts
04-Dec-19 16:34 35.864210 -106.017405 3 11002ft 256kts
04-Dec-19 16:35 35.936563 -106.006704 4 11005ft 267kts
04-Dec-19 16:36 36.009947 -105.995776 3 11669ft 247kts
04-Dec-19 16:37 36.079415 -105.985491 3 12001ft 259kts
04-Dec-19 16:38 36.153070 -105.974548 3 12001ft 274kts
04-Dec-19 16:39 36.230281 -105.963054 3 12000ft 283kts
04-Dec-19 16:40 36.309244 -105.951315 3 12200ft 288kts
04-Dec-19 16:41 36.379691 -105.940748 3 11996ft 228kts
04-Dec-19 16:42 36.438180 -105.931983 2 11997ft 199kts
04-Dec-19 16:43 36.495706 -105.923170 6 11999ft 220kts
04-Dec-19 16:44 36.558679 -105.914760 6 11998ft 241kts
04-Dec-19 16:45 36.627347 -105.913395 318 12000ft 240kts
04-Dec-19 16:46 36.664119 -105.977819 302 11999ft 222kts
04-Dec-19 16:48 36.659887 -106.035972 187 12009ft 223kts
04-Dec-19 16:49 36.633617 -105.975078 97 11998ft 221kts
04-Dec-19 16:50 36.613218 -105.906407 120 11998ft 208kts
04-Dec-19 16:51 36.576028 -105.854515 133 11910ft 196kts
04-Dec-19 16:52 36.547012 -105.799462 128 11401ft 179kts
04-Dec-19 16:53 36.519229 -105.755958 134 10146ft 152kts
04-Dec-19 16:54 36.490575 -105.721062 152 8913ft 122kts
04-Dec-19 16:55 36.466598 -105.695603 132 7452ft 115kts
04-Dec-19 16:56 36.447602 -105.674019 137 7092ft 39kts
04-Dec-19 16:57 36.445179 -105.671263 135 7092ft 17kts
04-Dec-19 16:58 36.446054 -105.670422 321 7092ft 19kts
04-Dec-19 16:59 36.450950 -105.676020 316 7092ft 9kts
04-Dec-19 17:00 36.454771 -105.680318 318 7092ft 5kts
04-Dec-19 17:01 36.456574 -105.682894 224 7092ft 0kts
04-Dec-19 17:02 36.456574 -105.682894 224 7092ft 0kts
04-Dec-19 17:03 36.456574 -105.682894 224 7092ft 0kts
04-Dec-19 17:04 36.456574 -105.682894 224 7092ft 0kts
04-Dec-19 17:04 36.456574 -105.682894 224 7092ft 0kts
04-Dec-19 17:06 36.456574 -105.682894 224 7092ft 0kts
04-Dec-19 17:07 36.456574 -105.682894 224 7092ft 0kts
04-Dec-19 17:07 36.456574 -105.682894 224 7092ft 0kts
04-Dec-19 17:08 36.456574 -105.682894 224 7092ft 0kts
04-Dec-19 17:10 36.456574 -105.682894 224 7092ft 0kts

Navigation Log

Ident Type
Flight plan parsing failed, navigation log unavailable